createdAt,value
2023-03-19T00:00:30.430Z,10.01
2023-03-19T00:02:57.915Z,9.96
2023-03-19T00:05:25.414Z,10.07
2023-03-19T00:07:52.790Z,10.00
2023-03-19T00:10:21.713Z,9.98
2023-03-19T00:12:49.077Z,9.98
2023-03-19T00:15:16.547Z,9.91
2023-03-19T00:17:43.848Z,9.89
2023-03-19T00:20:12.074Z,9.83
2023-03-19T00:22:39.597Z,9.88
2023-03-19T00:25:08.102Z,9.84
2023-03-19T00:27:37.289Z,9.91
2023-03-19T00:30:04.984Z,9.88
2023-03-19T00:32:33.508Z,9.83
2023-03-19T00:35:01.270Z,9.83
2023-03-19T00:37:28.696Z,9.89
2023-03-19T00:39:56.063Z,9.69
2023-03-19T00:42:23.394Z,9.75
2023-03-19T00:44:52.325Z,9.68
2023-03-19T00:47:19.673Z,9.58
2023-03-19T00:49:47.273Z,9.64
2023-03-19T00:52:14.580Z,9.66
2023-03-19T00:54:41.992Z,9.58
2023-03-19T00:57:09.774Z,9.69
2023-03-19T00:59:37.473Z,9.71
2023-03-19T01:02:06.129Z,9.67
2023-03-19T01:04:33.462Z,9.59
2023-03-19T01:09:27.701Z,9.65
2023-03-19T01:11:54.989Z,9.62
2023-03-19T01:14:22.307Z,9.60
2023-03-19T01:16:49.611Z,9.63
2023-03-19T01:19:18.215Z,9.62
2023-03-19T01:21:46.448Z,9.58
2023-03-19T01:24:14.089Z,9.62
2023-03-19T01:26:41.476Z,9.55
2023-03-19T01:29:09.068Z,9.58
2023-03-19T01:31:37.280Z,9.59
2023-03-19T01:34:05.707Z,9.51
2023-03-19T01:36:34.267Z,9.51
2023-03-19T01:39:02.925Z,9.40
2023-03-19T01:41:30.258Z,9.27
2023-03-19T01:43:57.559Z,9.34
2023-03-19T01:46:28.163Z,9.37
2023-03-19T01:48:57.336Z,9.35
2023-03-19T01:51:26.800Z,9.41
2023-03-19T01:53:56.987Z,9.41
2023-03-19T01:56:28.609Z,9.48
2023-03-19T01:58:58.050Z,9.47
2023-03-19T02:01:26.421Z,9.51
2023-03-19T02:03:54.544Z,9.47
2023-03-19T02:06:22.625Z,9.48
2023-03-19T02:08:51.012Z,9.45
2023-03-19T02:11:19.394Z,9.40
2023-03-19T02:13:48.318Z,9.50
2023-03-19T02:16:16.489Z,9.41
2023-03-19T02:18:44.094Z,9.46
2023-03-19T02:21:12.681Z,9.48
2023-03-19T02:23:44.053Z,9.47
2023-03-19T02:26:14.256Z,9.49
2023-03-19T02:28:43.942Z,9.49
2023-03-19T02:31:12.085Z,9.44
2023-03-19T02:33:39.632Z,9.39
2023-03-19T02:36:09.136Z,9.33
2023-03-19T02:38:37.372Z,9.44
2023-03-19T02:41:05.842Z,9.38
2023-03-19T02:43:35.325Z,9.48
2023-03-19T02:46:03.593Z,9.52
2023-03-19T02:48:31.526Z,9.47
2023-03-19T02:50:58.855Z,9.49
2023-03-19T02:53:26.202Z,9.41
2023-03-19T02:55:53.599Z,9.44
2023-03-19T02:58:21.555Z,9.39
2023-03-19T03:00:51.983Z,9.41
2023-03-19T03:03:19.430Z,9.47
2023-03-19T03:05:46.990Z,9.44
2023-03-19T03:08:14.318Z,9.30
2023-03-19T03:10:41.613Z,9.39
2023-03-19T03:13:09.342Z,9.40
2023-03-19T03:15:36.669Z,9.25
2023-03-19T03:18:05.993Z,9.23
2023-03-19T03:20:33.581Z,9.23
2023-03-19T03:23:01.053Z,9.18
2023-03-19T03:25:28.377Z,9.14
2023-03-19T03:27:55.963Z,8.97
2023-03-19T03:30:23.916Z,8.92
2023-03-19T03:32:51.924Z,8.86
2023-03-19T03:35:22.725Z,8.76
2023-03-19T03:37:50.221Z,8.74
2023-03-19T03:40:17.534Z,8.75
2023-03-19T03:42:45.206Z,8.85
2023-03-19T03:45:12.771Z,8.86
2023-03-19T03:47:40.896Z,8.85
2023-03-19T03:50:10.789Z,8.87
2023-03-19T03:52:39.733Z,8.83
2023-03-19T03:55:07.542Z,8.73
2023-03-19T03:57:34.892Z,8.72
2023-03-19T04:00:02.175Z,8.66
2023-03-19T04:02:29.574Z,8.60
2023-03-19T04:04:57.066Z,8.73
2023-03-19T04:07:24.365Z,8.68
2023-03-19T04:09:52.982Z,8.70
2023-03-19T04:12:20.783Z,8.74
2023-03-19T04:14:48.407Z,8.61
2023-03-19T04:17:16.062Z,8.60
2023-03-19T04:19:44.025Z,8.61
2023-03-19T04:22:11.470Z,8.51
2023-03-19T04:24:38.744Z,8.52
2023-03-19T04:27:07.685Z,8.55
2023-03-19T04:29:35.360Z,8.60
2023-03-19T04:32:02.651Z,8.54
2023-03-19T04:34:29.976Z,8.64
2023-03-19T04:36:57.479Z,8.61
2023-03-19T04:39:25.703Z,8.69
2023-03-19T04:41:52.994Z,8.65
2023-03-19T04:44:21.792Z,8.68
2023-03-19T04:46:49.110Z,8.73
2023-03-19T04:49:16.432Z,8.72
2023-03-19T04:51:44.000Z,8.65
2023-03-19T04:54:11.272Z,8.68
2023-03-19T04:56:38.573Z,8.71
2023-03-19T04:59:06.649Z,8.59
2023-03-19T05:01:35.313Z,8.66
2023-03-19T05:04:03.030Z,8.57
2023-03-19T05:06:31.241Z,8.63
2023-03-19T05:08:58.554Z,8.45
2023-03-19T05:11:25.974Z,8.41
2023-03-19T05:13:53.275Z,8.36
2023-03-19T05:16:20.608Z,8.14
2023-03-19T05:18:49.592Z,8.23
2023-03-19T05:21:16.873Z,8.20
2023-03-19T05:23:44.172Z,8.24
2023-03-19T05:26:11.611Z,8.28
2023-03-19T05:28:39.906Z,8.34
2023-03-19T05:31:07.228Z,8.29
2023-03-19T05:33:34.571Z,8.27
2023-03-19T05:36:03.230Z,8.31
2023-03-19T05:38:30.560Z,8.37
2023-03-19T05:40:57.857Z,8.44
2023-03-19T05:43:25.198Z,8.37
2023-03-19T05:45:53.142Z,8.51
2023-03-19T05:48:20.426Z,8.56
2023-03-19T05:50:47.685Z,8.64
2023-03-19T05:53:16.332Z,8.69
2023-03-19T05:55:43.653Z,8.73
2023-03-19T05:58:11.249Z,8.70
2023-03-19T06:00:38.617Z,8.74
2023-03-19T06:03:06.272Z,8.75
2023-03-19T06:05:33.628Z,8.84
2023-03-19T06:08:00.972Z,8.75
2023-03-19T06:10:29.632Z,8.90
2023-03-19T06:12:56.930Z,8.96
2023-03-19T06:15:24.372Z,9.10
2023-03-19T06:17:51.659Z,9.24
2023-03-19T06:20:18.986Z,9.20
2023-03-19T06:22:46.723Z,9.19
2023-03-19T06:25:14.012Z,9.18
2023-03-19T06:27:42.658Z,9.25
2023-03-19T06:30:10.784Z,9.31
2023-03-19T06:32:38.298Z,9.29
2023-03-19T06:35:06.372Z,9.30
2023-03-19T06:37:34.012Z,9.37
2023-03-19T06:40:01.389Z,9.54
2023-03-19T06:42:28.730Z,9.61
2023-03-19T06:44:57.374Z,9.70
2023-03-19T06:47:24.772Z,9.81
2023-03-19T06:49:52.086Z,9.81
2023-03-19T06:52:19.412Z,9.81
2023-03-19T06:54:46.733Z,9.92
2023-03-19T06:57:14.014Z,9.99
2023-03-19T06:59:41.336Z,10.07
2023-03-19T07:02:12.194Z,10.01
2023-03-19T07:04:39.526Z,10.15
2023-03-19T07:07:06.990Z,10.26
2023-03-19T07:09:34.352Z,10.44
2023-03-19T07:12:01.648Z,10.45
2023-03-19T07:14:29.087Z,10.54
2023-03-19T07:16:56.795Z,10.64
2023-03-19T07:19:25.548Z,10.65
2023-03-19T07:21:52.818Z,10.74
2023-03-19T07:24:20.252Z,10.87
2023-03-19T07:26:47.834Z,10.91
2023-03-19T07:29:15.529Z,10.97
2023-03-19T07:31:42.832Z,11.11
2023-03-19T07:34:10.274Z,11.13
2023-03-19T07:36:38.925Z,11.16
2023-03-19T07:39:06.254Z,11.15
2023-03-19T07:41:33.582Z,11.23
2023-03-19T07:44:00.973Z,11.40
2023-03-19T07:46:28.554Z,11.47
2023-03-19T07:48:56.026Z,11.62
2023-03-19T07:51:23.306Z,11.64
2023-03-19T07:53:51.895Z,11.65
2023-03-19T07:56:19.177Z,11.89
2023-03-19T07:58:46.470Z,11.88
2023-03-19T08:01:13.787Z,12.04
2023-03-19T08:03:41.109Z,12.17
2023-03-19T08:06:08.420Z,12.28
2023-03-19T08:08:36.000Z,12.43
2023-03-19T08:11:04.782Z,12.31
2023-03-19T08:13:32.560Z,12.47
2023-03-19T08:15:59.857Z,12.60
2023-03-19T08:18:27.688Z,12.68
2023-03-19T08:20:55.167Z,12.82
2023-03-19T08:23:22.454Z,12.92
2023-03-19T08:25:51.705Z,13.02
2023-03-19T08:28:20.350Z,12.95
2023-03-19T08:30:47.622Z,12.96
2023-03-19T08:33:14.954Z,12.98
2023-03-19T08:35:42.272Z,12.87
2023-03-19T08:38:10.137Z,12.98
2023-03-19T08:40:37.444Z,13.18
2023-03-19T08:43:04.936Z,13.19
2023-03-19T08:45:33.736Z,13.10
2023-03-19T08:48:01.084Z,13.34
2023-03-19T08:50:28.409Z,13.53
2023-03-19T08:52:56.405Z,13.63
2023-03-19T08:55:23.782Z,13.54
2023-03-19T08:57:51.090Z,13.88
2023-03-19T09:00:19.475Z,13.74
2023-03-19T09:02:48.088Z,13.97
2023-03-19T09:05:15.512Z,13.88
2023-03-19T09:07:42.791Z,14.07
2023-03-19T09:10:10.614Z,13.98
2023-03-19T09:12:37.893Z,14.24
2023-03-19T09:15:06.631Z,14.18
2023-03-19T09:17:33.945Z,14.30
2023-03-19T09:20:04.118Z,14.26
2023-03-19T09:22:31.529Z,14.28
2023-03-19T09:24:58.829Z,14.30
2023-03-19T09:27:26.133Z,14.43
2023-03-19T09:29:53.500Z,14.58
2023-03-19T09:32:20.911Z,14.36
2023-03-19T09:34:48.861Z,14.51
2023-03-19T09:37:17.543Z,14.55
2023-03-19T09:39:44.845Z,14.55
2023-03-19T09:42:18.242Z,14.57
2023-03-19T09:44:46.649Z,14.63
2023-03-19T09:47:23.782Z,14.69
2023-03-19T09:49:52.871Z,14.85
2023-03-19T09:52:28.481Z,15.12
2023-03-19T09:54:57.240Z,15.16
2023-03-19T09:57:24.771Z,15.09
2023-03-19T09:59:53.180Z,15.10
2023-03-19T10:02:37.782Z,14.86
2023-03-19T10:05:11.827Z,14.92
2023-03-19T10:07:50.238Z,15.06
2023-03-19T10:10:28.781Z,15.27
2023-03-19T10:13:00.712Z,15.22
2023-03-19T10:15:29.256Z,15.54
2023-03-19T10:17:58.834Z,15.74
2023-03-19T10:20:32.064Z,15.62
2023-03-19T10:23:04.084Z,15.66
2023-03-19T10:25:33.638Z,15.98
2023-03-19T10:28:01.660Z,15.91
2023-03-19T10:30:29.954Z,16.00
2023-03-19T10:33:02.610Z,16.14
2023-03-19T10:35:38.115Z,16.05
2023-03-19T10:38:16.274Z,15.82
2023-03-19T10:40:49.071Z,15.76
2023-03-19T10:43:18.728Z,15.62
2023-03-19T10:45:46.530Z,15.73
2023-03-19T10:48:16.538Z,15.83
2023-03-19T10:50:48.290Z,15.87
2023-03-19T10:53:29.177Z,15.84
2023-03-19T10:55:57.876Z,16.01
2023-03-19T10:58:27.479Z,16.00
2023-03-19T11:00:57.570Z,15.94
2023-03-19T11:03:30.675Z,16.03
2023-03-19T11:06:04.979Z,16.25
2023-03-19T11:08:36.156Z,16.26
2023-03-19T11:11:04.138Z,16.45
2023-03-19T11:13:31.522Z,16.44
2023-03-19T11:16:00.206Z,16.49
2023-03-19T11:18:29.114Z,16.63
2023-03-19T11:20:58.165Z,16.67
2023-03-19T11:23:27.959Z,16.74
2023-03-19T11:25:59.989Z,16.87
2023-03-19T11:28:32.919Z,17.00
2023-03-19T11:31:03.594Z,17.11
2023-03-19T11:33:46.183Z,17.07
2023-03-19T11:36:15.674Z,17.00
2023-03-19T11:38:51.264Z,17.09
2023-03-19T11:41:27.070Z,17.20
2023-03-19T11:43:57.643Z,17.40
2023-03-19T11:46:29.672Z,17.42
2023-03-19T11:49:09.756Z,17.60
2023-03-19T11:51:43.027Z,17.78
2023-03-19T11:54:17.882Z,17.94
2023-03-19T11:56:49.273Z,17.89
2023-03-19T11:59:35.323Z,17.85
2023-03-19T12:02:27.370Z,17.87
2023-03-19T12:05:04.384Z,17.96
2023-03-19T12:07:34.203Z,17.93
2023-03-19T12:10:08.338Z,17.94
2023-03-19T12:12:43.560Z,17.88
2023-03-19T12:15:16.137Z,17.95
2023-03-19T12:17:47.417Z,17.90
2023-03-19T12:20:21.535Z,17.77
2023-03-19T12:23:00.852Z,17.39
2023-03-19T12:25:36.546Z,17.65
2023-03-19T12:28:09.586Z,17.59
2023-03-19T12:30:41.277Z,17.65
2023-03-19T12:33:16.064Z,17.67
2023-03-19T12:35:46.990Z,17.73
2023-03-19T12:38:18.363Z,17.72
2023-03-19T12:40:48.551Z,17.64
2023-03-19T12:43:23.374Z,17.59
2023-03-19T12:45:53.268Z,17.44
2023-03-19T12:48:24.325Z,17.50
2023-03-19T12:50:53.266Z,17.51
2023-03-19T12:53:27.228Z,17.46
2023-03-19T12:55:57.503Z,17.59
2023-03-19T12:58:31.349Z,17.60
2023-03-19T13:01:00.157Z,17.84
2023-03-19T13:03:33.190Z,17.81
2023-03-19T13:06:02.295Z,17.65
2023-03-19T13:08:33.410Z,17.54
2023-03-19T13:11:02.886Z,17.58
2023-03-19T13:13:38.579Z,17.78
2023-03-19T13:16:10.982Z,17.68
2023-03-19T13:18:43.140Z,17.54
2023-03-19T13:21:17.184Z,17.72
2023-03-19T13:23:45.518Z,17.54
2023-03-19T13:26:14.312Z,17.68
2023-03-19T13:28:55.641Z,17.53
2023-03-19T13:31:24.905Z,17.45
2023-03-19T13:33:53.632Z,17.42
2023-03-19T13:36:21.951Z,17.56
2023-03-19T13:38:51.449Z,17.58
2023-03-19T13:41:49.262Z,17.79
2023-03-19T13:44:28.231Z,17.49
2023-03-19T13:46:55.549Z,17.67
2023-03-19T13:49:30.447Z,17.84
2023-03-19T13:52:00.501Z,17.83
2023-03-19T13:54:38.878Z,17.62
2023-03-19T13:57:18.558Z,17.67
2023-03-19T13:59:48.139Z,17.77
2023-03-19T14:02:34.165Z,17.69
2023-03-19T14:05:02.862Z,17.64
2023-03-19T14:07:31.750Z,17.68
2023-03-19T14:10:08.573Z,17.69
2023-03-19T14:12:37.202Z,17.65
2023-03-19T14:15:17.977Z,17.57
2023-03-19T14:17:47.152Z,17.57
2023-03-19T14:20:36.575Z,17.63
2023-03-19T14:23:23.773Z,17.53
2023-03-19T14:26:00.093Z,17.52
2023-03-19T14:28:33.872Z,17.52
2023-03-19T14:31:03.580Z,17.46
2023-03-19T14:33:39.362Z,17.41
2023-03-19T14:36:07.194Z,17.42
2023-03-19T14:38:37.738Z,17.33
2023-03-19T14:41:05.886Z,17.31
2023-03-19T14:43:42.254Z,17.28
2023-03-19T14:46:18.843Z,17.37
2023-03-19T14:49:06.976Z,17.39
2023-03-19T14:52:01.373Z,17.43
2023-03-19T14:54:34.814Z,17.36
2023-03-19T14:57:07.077Z,17.38
2023-03-19T14:59:37.832Z,17.39
2023-03-19T15:02:06.874Z,17.37
2023-03-19T15:04:34.219Z,17.25
2023-03-19T15:07:01.948Z,17.25
2023-03-19T15:09:31.735Z,17.23
2023-03-19T15:12:12.761Z,17.24
2023-03-19T15:14:49.850Z,17.07
2023-03-19T15:17:21.569Z,17.17
2023-03-19T15:19:48.929Z,17.14
2023-03-19T15:22:17.393Z,17.13
2023-03-19T15:24:45.008Z,17.10
2023-03-19T15:27:22.663Z,17.08
2023-03-19T15:29:51.743Z,17.09
2023-03-19T15:33:07.669Z,17.20
2023-03-19T15:35:28.346Z,17.18
2023-03-19T15:37:59.863Z,17.10
2023-03-19T15:40:30.225Z,17.02
2023-03-19T15:42:59.359Z,17.04
2023-03-19T15:45:27.905Z,16.95
2023-03-19T15:47:59.399Z,16.97
2023-03-19T15:50:28.620Z,16.85
2023-03-19T15:53:05.831Z,16.78
2023-03-19T15:55:34.380Z,16.80
2023-03-19T15:58:05.895Z,16.56
2023-03-19T16:00:33.396Z,16.31
2023-03-19T16:03:02.261Z,16.32
2023-03-19T16:05:31.255Z,16.24
2023-03-19T16:08:01.001Z,16.14
2023-03-19T16:10:39.348Z,16.00
2023-03-19T16:13:22.041Z,16.02
2023-03-19T16:15:55.078Z,15.98
2023-03-19T16:18:27.817Z,15.92
2023-03-19T16:21:01.232Z,15.98
2023-03-19T16:23:31.751Z,15.72
2023-03-19T16:26:04.320Z,15.74
2023-03-19T16:28:31.893Z,15.63
2023-03-19T16:30:59.217Z,15.52
2023-03-19T16:33:29.204Z,15.44
2023-03-19T16:35:56.580Z,15.35
2023-03-19T16:38:24.871Z,15.21
2023-03-19T16:41:09.565Z,15.22
2023-03-19T16:43:37.056Z,15.21
2023-03-19T16:46:06.445Z,15.09
2023-03-19T16:48:39.000Z,15.02
2023-03-19T16:51:06.900Z,15.09
2023-03-19T16:53:34.185Z,15.02
2023-03-19T16:56:01.731Z,14.83
2023-03-19T16:58:30.528Z,14.66
2023-03-19T17:00:58.622Z,14.77
2023-03-19T17:06:19.743Z,14.28
2023-03-19T17:08:47.082Z,14.55
2023-03-19T17:11:17.403Z,14.30
2023-03-19T17:13:45.256Z,14.51
2023-03-19T17:16:12.865Z,14.30
2023-03-19T17:18:41.843Z,14.39
2023-03-19T17:21:10.108Z,14.12
2023-03-19T17:23:38.784Z,14.27
2023-03-19T17:26:11.665Z,14.04
2023-03-19T17:28:38.942Z,14.07
2023-03-19T17:31:06.426Z,14.19
2023-03-19T17:33:33.742Z,14.15
2023-03-19T17:36:01.668Z,14.18
2023-03-19T17:38:32.652Z,14.11
2023-03-19T17:41:01.516Z,13.78
2023-03-19T17:43:28.815Z,13.76
2023-03-19T17:45:56.995Z,13.77
2023-03-19T17:48:28.967Z,13.90
2023-03-19T17:50:57.832Z,13.99
2023-03-19T17:53:28.965Z,14.05
2023-03-19T17:55:56.243Z,13.74
2023-03-19T17:58:25.535Z,13.68
2023-03-19T18:00:53.440Z,13.74
2023-03-19T18:03:22.056Z,13.70
2023-03-19T18:05:50.468Z,13.76
2023-03-19T18:08:18.475Z,13.76
2023-03-19T18:10:45.822Z,13.58
2023-03-19T18:16:12.703Z,13.74
2023-03-19T18:18:40.035Z,13.66
2023-03-19T18:21:07.325Z,13.48
2023-03-19T18:23:34.662Z,13.45
2023-03-19T18:26:01.985Z,13.53
2023-03-19T18:28:29.297Z,13.38
2023-03-19T18:30:56.748Z,13.32
2023-03-19T18:33:26.769Z,13.06
2023-03-19T18:35:55.472Z,12.96
2023-03-19T18:38:23.918Z,13.05
2023-03-19T18:40:52.017Z,13.15
2023-03-19T18:43:19.756Z,13.15
2023-03-19T18:45:48.989Z,13.13
2023-03-19T18:48:18.296Z,13.25
2023-03-19T18:50:48.344Z,13.28
2023-03-19T18:53:16.328Z,13.23
2023-03-19T18:55:44.106Z,13.10
2023-03-19T18:58:16.362Z,12.95
2023-03-19T19:00:43.750Z,12.98
2023-03-19T19:03:13.497Z,13.06
2023-03-19T19:05:40.797Z,13.01
2023-03-19T19:11:07.065Z,13.07
2023-03-19T19:13:46.175Z,13.17
2023-03-19T19:16:21.992Z,12.99
2023-03-19T19:18:49.488Z,13.10
2023-03-19T19:21:19.958Z,13.16
2023-03-19T19:23:48.549Z,13.22
2023-03-19T19:26:22.316Z,13.02
2023-03-19T19:28:50.294Z,13.07
2023-03-19T19:31:25.975Z,13.01
2023-03-19T19:33:53.693Z,13.10
2023-03-19T19:36:21.472Z,13.23
2023-03-19T19:38:51.925Z,13.10
2023-03-19T19:41:21.195Z,12.96
2023-03-19T19:43:49.007Z,12.78
2023-03-19T19:46:17.385Z,12.73
2023-03-19T19:48:44.752Z,12.80
2023-03-19T19:51:18.147Z,12.87
2023-03-19T19:53:46.266Z,12.94
2023-03-19T19:56:17.041Z,12.88
2023-03-19T19:58:45.507Z,12.84
2023-03-19T20:01:15.657Z,12.61
2023-03-19T20:03:43.360Z,12.69
2023-03-19T20:06:12.113Z,12.67
2023-03-19T20:08:39.472Z,12.77
2023-03-19T20:11:13.633Z,12.82
2023-03-19T20:13:44.412Z,12.80
2023-03-19T20:16:12.370Z,12.86
2023-03-19T20:18:43.579Z,12.84
2023-03-19T20:21:12.458Z,12.72
2023-03-19T20:23:40.553Z,12.75
2023-03-19T20:26:08.211Z,12.66
2023-03-19T20:28:35.718Z,12.57
2023-03-19T20:31:05.363Z,12.65
2023-03-19T20:33:38.085Z,12.57
2023-03-19T20:36:06.022Z,12.56
2023-03-19T20:38:36.589Z,12.48
2023-03-19T20:41:04.209Z,12.51
2023-03-19T20:43:33.065Z,12.55
2023-03-19T20:46:01.805Z,12.46
2023-03-19T20:48:31.968Z,12.52
2023-03-19T20:50:59.612Z,12.58
2023-03-19T20:53:27.068Z,12.45
2023-03-19T20:55:54.786Z,12.56
2023-03-19T20:58:24.572Z,12.54
2023-03-19T21:00:52.889Z,12.44
2023-03-19T21:03:22.234Z,12.51
2023-03-19T21:05:51.613Z,12.43
2023-03-19T21:08:24.828Z,12.36
2023-03-19T21:10:53.011Z,12.49
2023-03-19T21:13:21.717Z,12.55
2023-03-19T21:15:50.153Z,12.70
2023-03-19T21:18:17.721Z,12.48
2023-03-19T21:20:47.863Z,12.49
2023-03-19T21:23:19.898Z,12.49
2023-03-19T21:25:47.624Z,12.36
2023-03-19T21:28:17.857Z,12.44
2023-03-19T21:30:46.584Z,12.47
2023-03-19T21:33:22.072Z,12.26
2023-03-19T21:35:49.526Z,12.20
2023-03-19T21:38:18.154Z,12.20
2023-03-19T21:40:45.424Z,12.17
2023-03-19T21:43:17.260Z,12.09
2023-03-19T22:00:18.842Z,11.68
2023-03-19T22:02:47.565Z,11.47
2023-03-19T22:05:16.511Z,11.54
2023-03-19T22:07:43.798Z,11.62
2023-03-19T22:10:11.433Z,11.59
2023-03-19T22:12:38.862Z,11.62
2023-03-19T22:15:07.118Z,11.46
2023-03-19T22:17:35.702Z,11.40
2023-03-19T22:20:03.450Z,11.38
2023-03-19T22:22:32.236Z,11.41
2023-03-19T22:25:00.308Z,11.34
2023-03-19T22:27:27.660Z,11.19
2023-03-19T22:29:54.974Z,11.31
2023-03-19T22:32:22.259Z,11.13
2023-03-19T22:34:50.864Z,11.02
2023-03-19T22:37:24.679Z,10.82
2023-03-19T22:39:51.966Z,10.72
2023-03-19T22:42:19.399Z,10.82
2023-03-19T22:44:48.235Z,10.98
2023-03-19T22:47:18.688Z,11.03
2023-03-19T22:49:45.961Z,11.13
2023-03-19T22:52:14.960Z,11.17
2023-03-19T22:54:42.716Z,11.22
2023-03-19T22:57:11.750Z,11.36
2023-03-19T22:59:39.132Z,11.26
2023-03-19T23:02:06.775Z,11.32
2023-03-19T23:04:34.611Z,11.29
2023-03-19T23:07:01.928Z,11.31
2023-03-19T23:09:31.634Z,11.39
2023-03-19T23:11:59.516Z,11.28
2023-03-19T23:14:30.960Z,11.30
2023-03-19T23:19:26.450Z,11.27
2023-03-19T23:21:54.568Z,11.31
2023-03-19T23:24:22.074Z,11.34
2023-03-19T23:26:51.627Z,11.17
2023-03-19T23:29:21.851Z,11.12
2023-03-19T23:31:51.822Z,11.11
2023-03-19T23:34:19.628Z,11.22
2023-03-19T23:36:47.332Z,11.10
2023-03-19T23:39:15.198Z,11.15
2023-03-19T23:41:45.580Z,11.19
2023-03-19T23:44:16.643Z,11.22
2023-03-19T23:46:44.613Z,11.22
2023-03-19T23:49:12.794Z,11.25
2023-03-19T23:51:41.099Z,11.35
2023-03-19T23:54:16.918Z,11.33
2023-03-19T23:56:44.193Z,11.41
2023-03-19T23:59:11.812Z,11.38
